Time;durP1;ratioP1;P1;durP2;ratioP2;P2;SDS_P1;SDS_P2;PMS_P1;PMS_P2;Temp;Humidity;BMP_temperature;BMP_pressure;BME280_temperature;BME280_humidity;BME280_pressure;Samples;Min_cycle;Max_cycle;Signal;HPM_P1;HPM_P2
2024/02/09 00:02:20;;;;;;;;;;;;;;;9.42;100.00;98058.25;5044604;28;19948;-75
2024/02/09 00:04:48;;;;;;;;;;;;;;;9.44;100.00;98056.31;5042325;28;19992;-77
2024/02/09 00:07:18;;;;;;;;;;;;;;;9.41;100.00;98051.28;5052549;28;19932;-75
2024/02/09 00:09:46;;;;;;;;;;;;;;;9.41;100.00;98045.16;5041591;28;19927;-75
2024/02/09 00:12:14;;;;;;;;;;;;;;;9.26;100.00;98010.25;5056257;28;20054;-76
2024/02/09 00:14:44;;;;;;;;;;;;;;;9.41;100.00;98035.44;5005981;28;19939;-77
2024/02/09 00:17:12;;;;;;;;;;;;;;;9.40;100.00;98033.75;5027385;28;19920;-76
2024/02/09 00:19:40;;;;;;;;;;;;;;;9.48;100.00;98020.78;5036137;28;19943;-76
2024/02/09 00:22:11;;;;;;;;;;;;;;;9.53;100.00;98022.22;5037755;28;19989;-77
2024/02/09 00:24:43;;;;;;;;;;;;;;;9.50;100.00;98021.50;5042335;28;20151;-77
2024/02/09 00:27:13;;;;;;;;;;;;;;;9.55;100.00;98022.94;5009677;28;20015;-77
2024/02/09 00:29:43;;;;;;;;;;;;;;;9.53;100.00;98020.41;5020068;28;19925;-76
2024/02/09 00:32:14;;;;;;;;;;;;;;;9.53;100.00;98023.06;5029480;28;19925;-76
2024/02/09 00:34:45;;;;;;;;;;;;;;;9.57;100.00;98023.66;5029756;28;19921;-77
2024/02/09 00:37:13;;;;;;;;;;;;;;;9.54;100.00;98014.16;5012774;28;20000;-76
2024/02/09 00:39:42;;;;;;;;;;;;;;;9.55;100.00;98007.06;5026482;28;19925;-76
2024/02/09 00:42:12;;;;;;;;;;;;;;;9.55;100.00;98010.56;5041748;28;20012;-75
2024/02/09 00:44:43;;;;;;;;;;;;;;;9.54;100.00;98008.88;5028499;28;20087;-76
2024/02/09 00:47:12;;;;;;;;;;;;;;;9.50;100.00;98002.16;5040213;28;19968;-78
2024/02/09 00:49:43;;;;;;;;;;;;;;;9.46;100.00;97996.28;5020611;28;19972;-76
2024/02/09 00:52:14;;;;;;;;;;;;;;;9.46;100.00;98000.72;5025609;28;19960;-76
2024/02/09 00:54:45;;;;;;;;;;;;;;;9.47;100.00;97989.19;5026481;28;19921;-76
2024/02/09 00:57:14;;;;;;;;;;;;;;;9.49;100.00;97980.19;5026767;28;19931;-74
2024/02/09 00:59:43;;;;;;;;;;;;;;;9.57;100.00;97994.59;5013764;28;19988;-76
2024/02/09 01:02:14;;;;;;;;;;;;;;;9.55;100.00;97978.00;5017934;28;19928;-75
2024/02/09 01:04:44;;;;;;;;;;;;;;;9.52;100.00;97989.66;5033891;28;20047;-76
2024/02/09 01:07:13;;;;;;;;;;;;;;;9.48;100.00;97988.22;5024365;28;19921;-75
2024/02/09 01:09:43;;;;;;;;;;;;;;;9.46;100.00;97979.59;5040657;28;19956;-76
2024/02/09 02:46:15;;;;;;;;;;;;;;;9.55;100.00;97914.59;5031731;28;20394;-75
2024/02/09 03:05:38;;;;;;;;;;;;;;;9.59;100.00;97897.56;5032049;28;19979;-75
2024/02/09 03:08:09;;;;;;;;;;;;;;;9.59;100.00;97884.34;5024600;28;19980;-76
2024/02/09 03:11:00;;;;;;;;;;;;;;;9.64;100.00;97887.41;5004378;28;19928;-76
2024/02/09 03:13:32;;;;;;;;;;;;;;;9.64;100.00;97895.34;5023435;28;19936;-76
2024/02/09 03:16:00;;;;;;;;;;;;;;;9.65;100.00;97889.09;5037905;28;19956;-75
2024/02/09 03:18:28;;;;;;;;;;;;;;;9.65;100.00;97879.38;5018100;28;19927;-76
2024/02/09 03:20:58;;;;;;;;;;;;;;;9.67;100.00;97873.97;5002790;28;20377;-76
2024/02/09 03:23:32;;;;;;;;;;;;;;;9.67;100.00;97872.16;5017938;28;19928;-76
2024/02/09 03:26:00;;;;;;;;;;;;;;;9.72;100.00;97874.41;5009850;28;19994;-75
2024/02/09 03:28:29;;;;;;;;;;;;;;;9.72;100.00;97869.97;5013343;28;19921;-74
2024/02/09 03:30:59;;;;;;;;;;;;;;;9.65;100.00;97873.25;5018085;28;19936;-76
2024/02/09 03:33:29;;;;;;;;;;;;;;;9.59;100.00;97879.06;5011271;28;19921;-74
2024/02/09 03:35:57;;;;;;;;;;;;;;;9.59;100.00;97871.13;5011774;28;20381;-76
2024/02/09 03:38:27;;;;;;;;;;;;;;;9.57;100.00;97867.78;4976420;28;19941;-76
2024/02/09 03:40:55;;;;;;;;;;;;;;;9.57;100.00;97870.41;5015945;28;19933;-76
2024/02/09 03:43:25;;;;;;;;;;;;;;;9.55;100.00;97875.81;5024823;28;19925;-75
2024/02/09 03:45:54;;;;;;;;;;;;;;;9.58;100.00;97870.28;5010531;28;20186;-75
2024/02/09 03:48:23;;;;;;;;;;;;;;;9.57;100.00;97873.06;4977198;28;20309;-75
2024/02/09 03:50:52;;;;;;;;;;;;;;;9.55;100.00;97869.69;4995346;28;20582;-76
2024/02/09 03:53:21;;;;;;;;;;;;;;;9.53;100.00;97863.69;5005335;28;19921;-76
2024/02/09 03:55:49;;;;;;;;;;;;;;;9.59;100.00;97871.13;5009154;28;19921;-75
2024/02/09 03:58:17;;;;;;;;;;;;;;;9.62;100.00;97871.69;5028921;28;19929;-75
2024/02/09 04:00:45;;;;;;;;;;;;;;;9.71;100.00;97872.75;4995559;28;19948;-76
2024/02/09 04:03:22;;;;;;;;;;;;;;;9.71;100.00;97870.09;5039554;28;19929;-75
2024/02/09 04:05:50;;;;;;;;;;;;;;;9.70;100.00;97868.41;5016227;28;19921;-74
2024/02/09 04:08:19;;;;;;;;;;;;;;;9.69;100.00;97864.09;4988431;28;19925;-74
2024/02/09 04:10:47;;;;;;;;;;;;;;;9.67;100.00;97864.22;5016106;28;19936;-75
2024/02/09 04:13:15;;;;;;;;;;;;;;;9.67;100.00;97864.22;4996868;28;19925;-75
2024/02/09 04:15:54;;;;;;;;;;;;;;;9.65;100.00;97860.03;5025123;28;19955;-75
2024/02/09 04:18:28;;;;;;;;;;;;;;;9.65;100.00;97858.22;5025601;28;20180;-75
2024/02/09 04:20:56;;;;;;;;;;;;;;;9.66;100.00;97861.72;4997476;28;19921;-76
2024/02/09 04:23:24;;;;;;;;;;;;;;;9.62;100.00;97858.47;5017515;28;19952;-74
2024/02/09 04:25:53;;;;;;;;;;;;;;;9.60;100.00;97859.59;5012248;28;20331;-74
2024/02/09 04:28:22;;;;;;;;;;;;;;;9.69;100.00;97859.66;5005793;28;19932;-76
2024/02/09 04:30:50;;;;;;;;;;;;;;;9.67;100.00;97850.19;5001984;28;19927;-75
2024/02/09 04:33:17;;;;;;;;;;;;;;;9.64;100.00;97851.25;4976036;28;20317;-75
2024/02/09 04:35:47;;;;;;;;;;;;;;;9.64;100.00;97845.13;5015969;28;19925;-75
2024/02/09 04:38:15;;;;;;;;;;;;;;;9.62;100.00;97836.50;5007471;28;19929;-74
2024/02/09 04:40:44;;;;;;;;;;;;;;;9.61;100.00;97853.31;5001406;28;19921;-76
2024/02/09 04:43:11;;;;;;;;;;;;;;;9.63;100.00;97846.09;4993598;28;19925;-75
2024/02/09 04:45:39;;;;;;;;;;;;;;;9.65;100.00;97841.53;5025227;28;19935;-75
2024/02/09 04:48:10;;;;;;;;;;;;;;;9.62;100.00;97847.06;5026123;28;19925;-76
2024/02/09 04:50:38;;;;;;;;;;;;;;;9.66;100.00;97843.22;5003558;28;19930;-75
2024/02/09 04:53:11;;;;;;;;;;;;;;;9.66;100.00;97840.56;4991124;28;19928;-75
2024/02/09 04:55:40;;;;;;;;;;;;;;;9.74;100.00;97846.06;5006084;28;19929;-75
2024/02/09 04:58:08;;;;;;;;;;;;;;;9.72;100.00;97850.63;5002563;28;19972;-76
2024/02/09 05:00:36;;;;;;;;;;;;;;;9.67;100.00;97852.81;4995787;28;19921;-75
2024/02/09 05:03:04;;;;;;;;;;;;;;;9.66;100.00;97851.13;5008962;28;20674;-75
2024/02/09 05:05:34;;;;;;;;;;;;;;;9.62;100.00;97858.47;5008225;28;19932;-75
2024/02/09 05:08:05;;;;;;;;;;;;;;;9.61;100.00;97851.50;5000833;28;19928;-75
2024/02/09 05:10:36;;;;;;;;;;;;;;;9.58;100.00;97845.66;5009681;28;20350;-75
2024/02/09 05:13:07;;;;;;;;;;;;;;;9.55;100.00;97845.91;5021840;28;20709;-75
2024/02/09 05:15:36;;;;;;;;;;;;;;;9.52;100.00;97840.88;4994863;28;20444;-74
2024/02/09 05:18:04;;;;;;;;;;;;;;;9.50;100.00;97836.56;5013313;28;19925;-75
2024/02/09 05:20:33;;;;;;;;;;;;;;;9.62;100.00;97832.06;5009875;28;20008;-74
2024/02/09 05:23:01;;;;;;;;;;;;;;;9.65;100.00;97830.97;5019404;28;19953;-74
2024/02/09 05:25:29;;;;;;;;;;;;;;;9.62;100.00;97832.06;5030993;28;19921;-73
2024/02/09 05:27:59;;;;;;;;;;;;;;;9.65;100.00;97823.88;5016239;28;19921;-74
2024/02/09 05:30:32;;;;;;;;;;;;;;;9.66;100.00;97822.91;5021364;28;20025;-75
2024/02/09 05:33:02;;;;;;;;;;;;;;;9.60;100.00;97825.25;4999812;28;19993;-73
2024/02/09 05:35:31;;;;;;;;;;;;;;;9.57;100.00;97823.69;5001328;28;19974;-74
2024/02/09 05:38:00;;;;;;;;;;;;;;;9.54;100.00;97831.03;5021833;28;20010;-75
2024/02/09 05:40:28;;;;;;;;;;;;;;;9.55;100.00;97827.44;5010758;28;19925;-74
2024/02/09 05:43:00;;;;;;;;;;;;;;;9.58;100.00;97829.81;5028717;28;20368;-74
2024/02/09 05:45:30;;;;;;;;;;;;;;;9.60;100.00;97825.25;5004914;28;19925;-75
2024/02/09 05:47:58;;;;;;;;;;;;;;;9.57;100.00;97828.97;5022816;28;19926;-75
2024/02/09 05:50:26;;;;;;;;;;;;;;;9.54;100.00;97829.22;4998020;28;19948;-73
2024/02/09 05:53:07;;;;;;;;;;;;;;;9.55;100.00;97836.19;5010723;28;19972;-75
2024/02/09 05:55:38;;;;;;;;;;;;;;;9.61;100.00;97837.47;5023147;28;19921;-76
2024/02/09 05:58:08;;;;;;;;;;;;;;;9.61;100.00;97834.81;4986616;28;19921;-74
2024/02/09 06:00:39;;;;;;;;;;;;;;;9.60;100.00;97833.97;4994677;28;20209;-73
2024/02/09 06:03:10;;;;;;;;;;;;;;;9.61;100.00;97842.75;4995367;28;19925;-75
2024/02/09 06:05:41;;;;;;;;;;;;;;;9.62;100.00;97844.44;5004704;28;19924;-73
2024/02/09 06:08:09;;;;;;;;;;;;;;;9.62;100.00;97842.63;5005426;28;20043;-73
2024/02/09 06:10:37;;;;;;;;;;;;;;;9.62;100.00;97837.34;5003608;28;19925;-74
2024/02/09 06:13:07;;;;;;;;;;;;;;;9.64;100.00;97842.50;5010097;28;19929;-74
2024/02/09 06:15:38;;;;;;;;;;;;;;;9.64;100.00;97834.56;5030644;28;19929;-74
2024/02/09 06:18:11;;;;;;;;;;;;;;;9.67;100.00;97839.59;5017353;28;19944;-74
2024/02/09 06:20:39;;;;;;;;;;;;;;;9.71;100.00;97833.94;5016136;28;20611;-73
2024/02/09 06:23:07;;;;;;;;;;;;;;;9.74;100.00;97846.91;5003841;28;19945;-73
2024/02/09 06:25:37;;;;;;;;;;;;;;;9.72;100.00;97837.44;5005611;28;20436;-75
2024/02/09 06:28:08;;;;;;;;;;;;;;;9.73;100.00;97839.94;5014328;28;20008;-74
2024/02/09 06:30:38;;;;;;;;;;;;;;;9.74;100.00;97843.41;5006134;28;19931;-74
2024/02/09 06:33:08;;;;;;;;;;;;;;;9.81;100.00;97840.13;5003486;28;19929;-73
2024/02/09 06:35:35;;;;;;;;;;;;;;;9.84;100.00;97847.78;5024669;28;19971;-74
2024/02/09 06:38:06;;;;;;;;;;;;;;;9.80;100.00;97829.69;5007583;28;19932;-74
2024/02/09 06:40:35;;;;;;;;;;;;;;;9.84;100.00;97852.25;5000548;28;20441;-73
2024/02/09 06:43:02;;;;;;;;;;;;;;;9.82;100.00;97838.31;5023627;28;19920;-74
2024/02/09 06:45:35;;;;;;;;;;;;;;;9.81;100.00;97848.03;5008783;28;21311;-74
2024/02/09 06:48:05;;;;;;;;;;;;;;;9.81;100.00;97845.41;5025917;28;19956;-73
2024/02/09 06:50:36;;;;;;;;;;;;;;;9.81;100.00;97847.22;4995921;28;19928;-74
2024/02/09 06:53:05;;;;;;;;;;;;;;;9.78;100.00;97842.19;5022440;28;20011;-74
2024/02/09 06:55:34;;;;;;;;;;;;;;;9.76;100.00;97838.81;5010733;28;22856;-75
2024/02/09 06:58:04;;;;;;;;;;;;;;;9.73;100.00;97847.03;5027697;28;19921;-75
2024/02/09 07:00:35;;;;;;;;;;;;;;;9.74;100.00;97840.78;5021496;28;19928;-74
2024/02/09 07:03:08;;;;;;;;;;;;;;;9.75;100.00;97847.75;5027161;28;19928;-74
2024/02/09 07:05:39;;;;;;;;;;;;;;;9.72;100.00;97840.06;5027502;28;20363;-75
2024/02/09 07:08:09;;;;;;;;;;;;;;;9.75;100.00;97838.00;5026311;28;20480;-75
2024/02/09 07:10:38;;;;;;;;;;;;;;;9.78;100.00;97842.19;5018255;28;19925;-75
2024/02/09 07:13:06;;;;;;;;;;;;;;;9.79;100.00;97849.13;5009903;28;20348;-75
2024/02/09 07:15:34;;;;;;;;;;;;;;;9.79;100.00;97842.06;5021165;28;20297;-74
2024/02/09 07:18:02;;;;;;;;;;;;;;;9.80;100.00;97841.09;5026600;28;20003;-74
2024/02/09 07:20:31;;;;;;;;;;;;;;;9.84;100.00;97842.50;5027090;28;19925;-74
2024/02/09 07:22:59;;;;;;;;;;;;;;;9.85;100.00;97843.34;5015992;28;19995;-73
2024/02/09 07:25:31;;;;;;;;;;;;;;;9.81;100.00;97834.00;4981874;28;19972;-73
2024/02/09 07:28:01;;;;;;;;;;;;;;;9.80;100.00;97838.44;5024740;28;19925;-72
2024/02/09 07:30:29;;;;;;;;;;;;;;;9.81;100.00;97839.28;5018978;28;19925;-73
2024/02/09 07:32:57;;;;;;;;;;;;;;;9.90;100.00;97840.31;5006991;28;19932;-73
2024/02/09 07:35:25;;;;;;;;;;;;;;;9.91;100.00;97847.28;5007609;28;19924;-73
2024/02/09 07:37:55;;;;;;;;;;;;;;;9.90;100.00;97848.25;5003810;28;20016;-75
2024/02/09 07:40:23;;;;;;;;;;;;;;;9.90;100.00;97848.25;5023341;28;19952;-73
2024/02/09 07:42:53;;;;;;;;;;;;;;;9.93;100.00;97851.44;5021488;28;20354;-74
2024/02/09 07:45:21;;;;;;;;;;;;;;;9.95;100.00;97849.53;5023844;28;19921;-74
2024/02/09 07:47:49;;;;;;;;;;;;;;;9.95;100.00;97846.03;5015937;28;20084;-73
2024/02/09 07:50:17;;;;;;;;;;;;;;;9.93;100.00;97855.91;5032362;28;20398;-73
2024/02/09 07:52:45;;;;;;;;;;;;;;;9.90;100.00;97846.44;5012789;28;19925;-71
2024/02/09 07:55:15;;;;;;;;;;;;;;;9.93;100.00;97838.22;5034897;28;19953;-74
2024/02/09 07:57:43;;;;;;;;;;;;;;;9.97;100.00;97847.59;5026899;28;19928;-73
2024/02/09 08:00:17;;;;;;;;;;;;;;;9.98;100.00;97851.06;5030668;28;19932;-71
2024/02/09 08:02:45;;;;;;;;;;;;;;;9.99;100.00;97848.31;5002078;28;19972;-72
2024/02/09 08:05:18;;;;;;;;;;;;;;;9.99;100.00;97844.81;5028067;28;20337;-74
2024/02/09 08:07:47;;;;;;;;;;;;;;;10.00;100.00;97839.41;5009404;28;19929;-75
2024/02/09 08:10:18;;;;;;;;;;;;;;;10.05;100.00;97836.38;5024945;28;19927;-74
2024/02/09 08:12:45;;;;;;;;;;;;;;;10.12;100.00;97830.41;5002636;28;19928;-72
2024/02/09 08:15:15;;;;;;;;;;;;;;;10.14;100.00;97844.34;5021929;28;19921;-74
2024/02/09 08:17:48;;;;;;;;;;;;;;;10.18;100.00;97840.50;5001431;28;19925;-74
2024/02/09 08:20:20;;;;;;;;;;;;;;;10.22;100.00;97851.69;5008416;28;19928;-73
2024/02/09 08:22:49;;;;;;;;;;;;;;;10.22;100.00;97848.19;4992990;28;20039;-72
2024/02/09 08:25:18;;;;;;;;;;;;;;;10.23;100.00;97855.97;5013957;28;19927;-72
2024/02/09 08:27:46;;;;;;;;;;;;;;;10.29;100.00;97849.31;5015407;28;20360;-72
2024/02/09 08:30:14;;;;;;;;;;;;;;;10.37;100.00;97846.88;5022080;28;20370;-72
2024/02/09 08:32:42;;;;;;;;;;;;;;;10.35;100.00;97843.50;5002981;28;20298;-74
2024/02/09 08:35:11;;;;;;;;;;;;;;;10.32;100.00;97844.63;5028019;28;19925;-74
2024/02/09 08:37:41;;;;;;;;;;;;;;;10.30;100.00;97838.63;5005389;28;20416;-75
2024/02/09 08:40:13;;;;;;;;;;;;;;;10.31;100.00;97850.03;5000812;28;19929;-74
2024/02/09 08:42:44;;;;;;;;;;;;;;;10.28;100.00;97851.13;4993226;28;19932;-73
2024/02/09 08:45:16;;;;;;;;;;;;;;;10.31;100.00;97848.22;5028373;28;20000;-73
2024/02/09 08:47:44;;;;;;;;;;;;;;;10.29;100.00;97851.97;5029850;28;19921;-74
2024/02/09 08:50:13;;;;;;;;;;;;;;;10.29;100.00;97846.69;5014951;28;20342;-75
2024/02/09 08:52:42;;;;;;;;;;;;;;;10.35;100.00;97841.72;5007833;28;19936;-74
2024/02/09 08:55:10;;;;;;;;;;;;;;;10.46;100.00;97840.75;5030940;28;19928;-74
2024/02/09 08:57:43;;;;;;;;;;;;;;;10.54;100.00;97840.94;5023632;28;19925;-72
2024/02/09 09:00:15;;;;;;;;;;;;;;;10.55;100.00;97834.66;5010491;28;19967;-74
2024/02/09 09:02:43;;;;;;;;;;;;;;;10.62;100.00;97832.31;5020099;28;20265;-74
2024/02/09 09:05:11;;;;;;;;;;;;;;;10.74;100.00;97834.72;5025796;28;19978;-74
2024/02/09 09:07:41;;;;;;;;;;;;;;;10.78;100.00;97837.94;5031929;28;19925;-78
2024/02/09 09:10:13;;;;;;;;;;;;;;;10.80;100.00;97838.66;5011559;28;19960;-77
2024/02/09 09:12:42;;;;;;;;;;;;;;;10.81;100.00;97840.34;5026921;28;19921;-78
2024/02/09 09:15:13;;;;;;;;;;;;;;;10.89;100.00;97832.53;5029878;28;20009;-78
2024/02/09 09:17:44;;;;;;;;;;;;;;;10.94;100.00;97834.78;5030777;28;19928;-73
2024/02/09 09:20:12;;;;;;;;;;;;;;;10.95;100.00;97834.66;5030762;28;20312;-75
2024/02/09 09:22:44;;;;;;;;;;;;;;;10.97;100.00;97835.34;5002169;28;19932;-73
2024/02/09 09:25:12;;;;;;;;;;;;;;;11.01;100.00;97841.22;5016696;28;19920;-75
2024/02/09 09:27:40;;;;;;;;;;;;;;;11.04;100.00;97847.06;5017238;28;19929;-76
2024/02/09 09:30:08;;;;;;;;;;;;;;;11.00;100.00;97835.09;5016923;28;19979;-75
2024/02/09 09:32:38;;;;;;;;;;;;;;;11.00;100.00;97850.13;5015845;28;19932;-75
2024/02/09 09:35:08;;;;;;;;;;;;;;;11.01;100.00;97846.50;5009283;28;19983;-76
2024/02/09 09:37:39;;;;;;;;;;;;;;;10.99;100.00;97843.16;5013898;28;20286;-76
2024/02/09 09:40:12;;;;;;;;;;;;;;;10.99;100.00;97845.81;5014913;28;19921;-76
2024/02/09 09:42:45;;;;;;;;;;;;;;;10.97;100.00;97839.81;4995198;28;19929;-74
2024/02/09 09:45:19;;;;;;;;;;;;;;;11.04;100.00;97832.97;5012026;28;19921;-81
2024/02/09 09:47:56;;;;;;;;;;;;;;;11.06;100.00;97837.16;5022221;28;20060;-76
2024/02/09 09:50:26;;;;;;;;;;;;;;;11.09;100.00;97834.25;5017468;28;19924;-74
2024/02/09 09:52:54;;;;;;;;;;;;;;;11.13;100.00;97832.16;5000895;28;19929;-73
2024/02/09 09:55:26;;;;;;;;;;;;;;;11.14;100.00;97839.97;5024746;28;19921;-82
2024/02/09 09:57:55;;;;;;;;;;;;;;;11.19;100.00;97834.25;5025418;28;19925;-74
2024/02/09 10:00:24;;;;;;;;;;;;;;;11.26;100.00;97835.38;5015569;28;20027;-76
2024/02/09 10:02:54;;;;;;;;;;;;;;;11.29;100.00;97845.72;4994272;28;19921;-74
2024/02/09 10:05:21;;;;;;;;;;;;;;;11.29;100.00;97842.22;5028855;28;20062;-78
2024/02/09 10:07:53;;;;;;;;;;;;;;;11.32;100.00;97831.34;5014872;28;19987;-75
2024/02/09 10:10:28;;;;;;;;;;;;;;;11.32;100.00;97832.19;5013473;28;19979;-73
2024/02/09 10:13:03;;;;;;;;;;;;;;;11.37;100.00;97839.69;5007528;28;20019;-74
2024/02/09 10:15:33;;;;;;;;;;;;;;;11.43;100.00;97839.16;5012516;28;20278;-73
2024/02/09 10:18:10;;;;;;;;;;;;;;;11.44;100.00;97848.78;5010882;28;20011;-74
2024/02/09 10:20:41;;;;;;;;;;;;;;;11.46;100.00;97833.59;5025238;28;19968;-75
2024/02/09 10:23:09;;;;;;;;;;;;;;;11.50;100.00;97829.66;5009969;28;19925;-75
2024/02/09 10:25:41;;;;;;;;;;;;;;;11.49;100.00;97831.47;5015084;28;19920;-75
2024/02/09 10:28:11;;;;;;;;;;;;;;;11.54;100.00;97836.34;5004676;28;19933;-76
2024/02/09 10:30:40;;;;;;;;;;;;;;;11.56;100.00;97840.53;5031503;28;19921;-74
2024/02/09 10:33:12;;;;;;;;;;;;;;;11.59;100.00;97823.53;5014713;28;19968;-74
2024/02/09 10:35:39;;;;;;;;;;;;;;;11.62;100.00;97825.91;5016774;28;19929;-75
2024/02/09 10:38:08;;;;;;;;;;;;;;;11.62;100.00;97828.56;5028840;28;19932;-76
2024/02/09 10:40:36;;;;;;;;;;;;;;;11.58;100.00;97825.34;5012499;28;19964;-75
2024/02/09 10:43:05;;;;;;;;;;;;;;;11.56;100.00;97823.81;5005863;28;19928;-76
2024/02/09 10:45:34;;;;;;;;;;;;;;;11.62;100.00;97827.72;5031871;28;20334;-75
2024/02/09 10:48:06;;;;;;;;;;;;;;;11.68;100.00;97817.38;4996810;28;19925;-76
2024/02/09 10:50:41;;;;;;;;;;;;;;;11.62;100.00;97822.41;4999955;28;19929;-75
2024/02/09 10:53:12;;;;;;;;;;;;;;;11.62;100.00;97823.25;5004731;28;19928;-76
2024/02/09 10:55:44;;;;;;;;;;;;;;;11.65;100.00;97816.84;5011809;28;19929;-75
2024/02/09 10:58:12;;;;;;;;;;;;;;;11.70;100.00;97822.53;5027163;28;19927;-75
2024/02/09 11:00:42;;;;;;;;;;;;;;;11.77;100.00;97805.13;5031325;28;19983;-74
2024/02/09 11:03:11;;;;;;;;;;;;;;;11.90;100.00;97814.44;5021464;28;19979;-75
2024/02/09 11:05:40;;;;;;;;;;;;;;;11.96;100.00;97813.03;5013754;28;19981;-76
2024/02/09 11:08:11;;;;;;;;;;;;;;;12.02;100.00;97809.81;5020695;28;19920;-75
2024/02/09 11:10:41;;;;;;;;;;;;;;;12.11;100.00;97811.59;5032872;28;19929;-74
2024/02/09 11:13:09;;;;;;;;;;;;;;;12.19;100.00;97800.25;5006384;28;20713;-77
2024/02/09 11:15:38;;;;;;;;;;;;;;;12.39;100.00;97796.56;5004275;28;20385;-77
2024/02/09 11:18:08;;;;;;;;;;;;;;;12.50;100.00;97799.00;5017510;28;19921;-76
2024/02/09 11:20:38;;;;;;;;;;;;;;;12.49;100.00;97799.97;5000268;28;19925;-74
2024/02/09 11:23:07;;;;;;;;;;;;;;;12.46;100.00;97794.13;5015254;28;19933;-77
2024/02/09 11:25:44;;;;;;;;;;;;;;;12.48;100.00;97789.50;5019509;28;19929;-77
2024/02/09 11:28:13;;;;;;;;;;;;;;;12.44;100.00;97774.84;5032277;28;19964;-76
2024/02/09 11:30:44;;;;;;;;;;;;;;;12.43;100.00;97782.00;5030896;28;19921;-76
2024/02/09 11:33:18;;;;;;;;;;;;;;;12.44;100.00;97778.34;5021800;28;19921;-76
2024/02/09 11:35:49;;;;;;;;;;;;;;;12.49;100.00;97767.28;5025318;28;19931;-75
2024/02/09 11:38:20;;;;;;;;;;;;;;;12.60;100.00;97759.97;5013085;28;19921;-76
2024/02/09 11:40:51;;;;;;;;;;;;;;;12.65;100.00;97762.19;5032764;28;19963;-76
2024/02/09 11:43:22;;;;;;;;;;;;;;;12.77;100.00;97753.00;5006580;28;19925;-75
2024/02/09 11:45:53;;;;;;;;;;;;;;;12.89;100.00;97751.00;5030235;28;20270;-75
2024/02/09 11:48:21;;;;;;;;;;;;;;;12.92;100.00;97745.34;5015641;28;19933;-75
2024/02/09 11:50:57;;;;;;;;;;;;;;;12.97;100.00;97741.28;5008628;28;20049;-75
2024/02/09 11:53:29;;;;;;;;;;;;;;;13.02;100.00;97745.31;5004496;28;19940;-75
2024/02/09 11:55:59;;;;;;;;;;;;;;;13.08;100.00;97739.38;5012302;28;20397;-76
2024/02/09 11:58:28;;;;;;;;;;;;;;;13.15;100.00;97740.47;5014095;28;19932;-74
2024/02/09 12:01:02;;;;;;;;;;;;;;;13.12;100.00;97746.06;5024071;28;19940;-75
2024/02/09 12:03:34;;;;;;;;;;;;;;;13.08;100.00;97734.03;5006471;28;20304;-74
2024/02/09 12:06:05;;;;;;;;;;;;;;;12.95;100.00;97737.09;5021152;28;19936;-72
2024/02/09 12:08:39;;;;;;;;;;;;;;;12.82;100.00;97740.13;5029293;28;19924;-77
2024/02/09 12:11:09;;;;;;;;;;;;;;;12.90;100.00;97736.72;5009101;28;19921;-74
2024/02/09 12:13:44;;;;;;;;;;;;;;;12.92;100.00;97729.41;5000031;28;19964;-75
2024/02/09 12:16:15;;;;;;;;;;;;;;;13.04;100.00;97730.06;5016649;28;20021;-73
2024/02/09 12:18:45;;;;;;;;;;;;;;;13.18;100.00;97727.72;5027999;28;19921;-76
2024/02/09 12:21:16;;;;;;;;;;;;;;;13.26;100.00;97729.59;5030861;28;19928;-76
2024/02/09 12:23:46;;;;;;;;;;;;;;;13.32;100.00;97723.69;5006637;28;20189;-72
2024/02/09 12:26:18;;;;;;;;;;;;;;;13.32;100.00;97723.69;5039306;28;19925;-73
2024/02/09 12:28:46;;;;;;;;;;;;;;;13.30;100.00;97728.31;5026394;28;19929;-74
2024/02/09 12:31:19;;;;;;;;;;;;;;;13.24;100.00;97728.91;5030201;28;19921;-74
2024/02/09 12:33:48;;;;;;;;;;;;;;;13.19;100.00;97732.06;5023313;28;19928;-76
2024/02/09 12:36:20;;;;;;;;;;;;;;;13.11;100.00;97734.59;5025839;28;19925;-74
2024/02/09 12:38:55;;;;;;;;;;;;;;;13.00;100.00;97727.69;5029665;28;20020;-76
2024/02/09 12:41:25;;;;;;;;;;;;;;;12.87;100.00;97727.25;5012435;28;19921;-75
2024/02/09 12:43:59;;;;;;;;;;;;;;;12.82;100.00;97729.50;5018750;28;20319;-77
2024/02/09 12:46:32;;;;;;;;;;;;;;;12.76;100.00;97742.53;5020905;28;19932;-75
2024/02/09 12:49:00;;;;;;;;;;;;;;;12.69;100.00;97742.31;5012769;28;20004;-74
2024/02/09 12:51:36;;;;;;;;;;;;;;;12.66;100.00;97750.56;4997717;28;19921;-76
2024/02/09 12:54:13;;;;;;;;;;;;;;;12.65;100.00;97747.09;5003462;28;20427;-75
2024/02/09 12:56:53;;;;;;;;;;;;;;;12.64;100.00;97753.38;5000765;28;20016;-78
2024/02/09 12:59:26;;;;;;;;;;;;;;;12.67;100.00;97752.25;5017222;28;20034;-77
2024/02/09 13:01:55;;;;;;;;;;;;;;;12.67;100.00;97746.09;5018563;28;20004;-78
2024/02/09 13:04:26;;;;;;;;;;;;;;;12.68;100.00;97743.28;5021454;28;19963;-77
2024/02/09 13:06:55;;;;;;;;;;;;;;;12.74;100.00;97742.72;5027001;28;20027;-76
2024/02/09 13:09:27;;;;;;;;;;;;;;;12.77;100.00;97741.56;5018323;28;20445;-77
2024/02/09 13:11:56;;;;;;;;;;;;;;;12.77;100.00;97741.56;4994289;28;19975;-75
2024/02/09 13:14:26;;;;;;;;;;;;;;;12.82;100.00;97733.97;5001258;28;19976;-77
2024/02/09 13:16:54;;;;;;;;;;;;;;;12.85;100.00;97739.84;5015332;28;19929;-77
2024/02/09 13:19:23;;;;;;;;;;;;;;;12.77;100.00;97733.59;5026933;28;20211;-73
2024/02/09 13:21:55;;;;;;;;;;;;;;;12.83;100.00;97733.00;5008220;28;19952;-75
2024/02/09 13:24:25;;;;;;;;;;;;;;;12.89;100.00;97732.41;5001221;28;19928;-73
2024/02/09 13:26:54;;;;;;;;;;;;;;;12.87;100.00;97727.25;5001167;28;19979;-76
2024/02/09 13:29:24;;;;;;;;;;;;;;;12.88;100.00;97728.91;5022455;28;19924;-76
2024/02/09 13:31:53;;;;;;;;;;;;;;;12.92;100.00;97730.25;5025899;28;19940;-73
2024/02/09 13:34:27;;;;;;;;;;;;;;;12.99;100.00;97723.38;5013538;28;19921;-71
2024/02/09 13:36:56;;;;;;;;;;;;;;;13.00;100.00;97721.53;5021549;28;19925;-73
2024/02/09 13:39:26;;;;;;;;;;;;;;;12.92;100.00;97724.09;5005329;28;19963;-73
2024/02/09 13:41:57;;;;;;;;;;;;;;;12.90;100.00;97723.44;5013333;28;20056;-72
2024/02/09 13:44:26;;;;;;;;;;;;;;;12.83;100.00;97717.91;5004712;28;19960;-71
2024/02/09 13:46:54;;;;;;;;;;;;;;;12.77;100.00;97720.31;5014109;28;19936;-71
2024/02/09 13:49:22;;;;;;;;;;;;;;;12.70;100.00;97725.41;5012082;28;19925;-70
2024/02/09 13:51:55;;;;;;;;;;;;;;;12.68;100.00;97713.25;5010852;28;19925;-73
2024/02/09 13:54:24;;;;;;;;;;;;;;;12.58;100.00;97726.59;5005214;28;19936;-73
2024/02/09 13:56:52;;;;;;;;;;;;;;;12.52;100.00;97716.56;5012065;28;19941;-71
2024/02/09 13:59:23;;;;;;;;;;;;;;;12.47;100.00;97718.81;4993863;28;20301;-73
2024/02/09 14:01:53;;;;;;;;;;;;;;;12.44;100.00;97714.66;5021652;28;20011;-73
2024/02/09 14:04:25;;;;;;;;;;;;;;;12.34;100.00;97718.34;5011812;28;19932;-72
2024/02/09 14:06:57;;;;;;;;;;;;;;;12.26;100.00;97713.78;5018248;28;19929;-74
2024/02/09 14:09:25;;;;;;;;;;;;;;;12.22;100.00;97718.56;5026376;28;19979;-72
2024/02/09 14:11:53;;;;;;;;;;;;;;;12.18;100.00;97713.69;5011299;28;19925;-71
2024/02/09 14:14:22;;;;;;;;;;;;;;;12.15;100.00;97709.50;5003822;28;19924;-71
2024/02/09 14:16:56;;;;;;;;;;;;;;;12.09;100.00;97707.47;5023345;28;20353;-72
2024/02/09 14:19:25;;;;;;;;;;;;;;;12.09;100.00;97710.09;5011441;28;19967;-72
2024/02/09 14:21:55;;;;;;;;;;;;;;;12.18;100.00;97708.38;5004882;28;19929;-74
2024/02/09 14:24:23;;;;;;;;;;;;;;;12.21;100.00;97710.75;4995036;28;19952;-74
2024/02/09 14:26:51;;;;;;;;;;;;;;;12.21;100.00;97698.31;5010160;28;19925;-76
2024/02/09 14:29:20;;;;;;;;;;;;;;;12.16;100.00;97711.19;5010785;28;20401;-77
2024/02/09 14:31:47;;;;;;;;;;;;;;;12.06;100.00;97699.78;5011941;28;20775;-75
2024/02/09 14:34:17;;;;;;;;;;;;;;;12.02;100.00;97701.06;5002345;28;19928;-75
2024/02/09 14:36:51;;;;;;;;;;;;;;;11.94;100.00;97703.63;5026824;28;20366;-74
2024/02/09 14:39:22;;;;;;;;;;;;;;;11.89;100.00;97692.59;5026968;28;19932;-75
2024/02/09 14:41:52;;;;;;;;;;;;;;;11.83;100.00;97703.78;5011962;28;19972;-75
2024/02/09 14:44:20;;;;;;;;;;;;;;;11.77;100.00;97699.91;5002285;28;20427;-75
2024/02/09 14:46:49;;;;;;;;;;;;;;;11.73;100.00;97695.00;5008751;28;19925;-73